Time;durP1;ratioP1;P1;durP2;ratioP2;P2;SDS_P1;SDS_P2;PMS_P1;PMS_P2;Temp;Humidity;BMP_temperature;BMP_pressure;BME280_temperature;BME280_humidity;BME280_pressure;Samples;Min_cycle;Max_cycle;Signal;HPM_P1;HPM_P2
2023/11/05 00:00:17;;;;;;;16.40;3.85;;;10.50;96.90;;;;;;5022882;28;20033;-77
2023/11/05 00:02:43;;;;;;;16.42;4.00;;;10.50;96.90;;;;;;5022634;28;20386;-76
2023/11/05 00:05:09;;;;;;;15.35;4.75;;;10.50;96.90;;;;;;5015372;28;20136;-77
2023/11/05 00:07:34;;;;;;;14.23;4.18;;;10.50;96.90;;;;;;5020009;28;20526;-77
2023/11/05 00:10:00;;;;;;;18.27;4.28;;;10.50;96.90;;;;;;5015447;28;20057;-76
2023/11/05 00:12:26;;;;;;;16.10;4.47;;;10.50;96.90;;;;;;5021229;28;20037;-76
2023/11/05 00:14:51;;;;;;;17.25;4.68;;;10.50;97.00;;;;;;5024924;28;20033;-78
2023/11/05 00:17:17;;;;;;;18.45;4.22;;;10.50;97.00;;;;;;5018866;28;20415;-77
2023/11/05 00:19:43;;;;;;;19.60;4.50;;;10.50;97.00;;;;;;5021494;28;20402;-77
2023/11/05 00:22:08;;;;;;;15.18;4.07;;;10.50;97.00;;;;;;5018905;28;20401;-77
2023/11/05 00:24:34;;;;;;;16.05;3.83;;;10.50;97.00;;;;;;5019465;28;20553;-76
2023/11/05 00:26:59;;;;;;;14.38;4.07;;;10.50;97.00;;;;;;5017004;28;20057;-78
2023/11/05 00:29:25;;;;;;;17.88;5.18;;;10.50;97.10;;;;;;5012709;28;20395;-77
2023/11/05 00:31:52;;;;;;;21.05;6.95;;;10.50;97.10;;;;;;5021717;28;20048;-77
2023/11/05 00:34:18;;;;;;;13.48;4.00;;;10.50;97.00;;;;;;5016023;28;20163;-77
2023/11/05 00:36:44;;;;;;;17.05;5.00;;;10.50;97.00;;;;;;5022433;28;20494;-77
2023/11/05 00:39:09;;;;;;;15.15;4.43;;;10.50;96.90;;;;;;5011714;28;20166;-77
2023/11/05 00:41:35;;;;;;;17.05;5.05;;;10.50;96.90;;;;;;5009075;28;20088;-77
2023/11/05 00:44:01;;;;;;;16.42;4.30;;;10.50;97.00;;;;;;5015264;28;20034;-79
2023/11/05 00:46:26;;;;;;;13.25;3.95;;;10.50;97.00;;;;;;5015391;28;20119;-78
2023/11/05 00:48:52;;;;;;;14.57;4.15;;;10.60;97.10;;;;;;5018393;28;20553;-78
2023/11/05 00:51:18;;;;;;;18.65;4.65;;;10.60;97.00;;;;;;5017469;28;20490;-79
2023/11/05 00:53:44;;;;;;;15.82;3.83;;;10.60;97.00;;;;;;5018046;28;20033;-77
2023/11/05 00:56:10;;;;;;;15.13;4.60;;;10.50;97.00;;;;;;5016485;28;20038;-77
2023/11/05 00:58:36;;;;;;;16.40;4.18;;;10.50;97.00;;;;;;5014432;28;20380;-77
2023/11/05 01:01:01;;;;;;;19.40;4.53;;;10.50;96.90;;;;;;5019108;28;20033;-77
2023/11/05 01:03:27;;;;;;;18.35;3.85;;;10.50;97.00;;;;;;5010337;28;20121;-77
2023/11/05 01:05:53;;;;;;;15.98;4.28;;;10.50;97.00;;;;;;5017995;28;20128;-77
2023/11/05 01:08:18;;;;;;;18.63;4.22;;;10.50;97.00;;;;;;5020439;28;20072;-78
2023/11/05 01:10:44;;;;;;;17.73;4.55;;;10.50;97.10;;;;;;5021444;28;20041;-77
2023/11/05 01:13:09;;;;;;;15.63;3.95;;;10.50;97.00;;;;;;5018741;28;20126;-77
2023/11/05 01:15:35;;;;;;;19.48;4.65;;;10.50;97.10;;;;;;5038086;28;20696;-77
2023/11/05 01:18:01;;;;;;;17.52;4.00;;;10.40;97.10;;;;;;5041076;28;20482;-78
2023/11/05 01:20:27;;;;;;;14.57;4.03;;;10.50;97.20;;;;;;5044466;28;20485;-78
2023/11/05 01:22:53;;;;;;;18.05;4.43;;;10.50;97.00;;;;;;5021942;28;20120;-76
2023/11/05 01:25:19;;;;;;;16.85;4.18;;;10.50;97.00;;;;;;5016863;28;20033;-77
2023/11/05 01:27:45;;;;;;;18.73;4.50;;;10.50;96.90;;;;;;5016535;28;20049;-77
2023/11/05 01:30:11;;;;;;;14.68;3.55;;;10.50;97.00;;;;;;5021934;28;20136;-76
2023/11/05 01:32:37;;;;;;;14.30;4.03;;;10.50;96.90;;;;;;5015334;28;20164;-76
2023/11/05 01:35:04;;;;;;;15.00;5.90;;;10.50;96.90;;;;;;5017916;28;20061;-76
2023/11/05 01:37:30;;;;;;;16.88;4.95;;;10.50;96.90;;;;;;5010190;28;20124;-76
2023/11/05 01:39:56;;;;;;;25.98;9.45;;;10.50;96.90;;;;;;5014531;28;20128;-76
2023/11/05 01:42:22;;;;;;;17.60;4.20;;;10.50;96.90;;;;;;5013977;28;20433;-77
2023/11/05 01:44:47;;;;;;;12.45;4.55;;;10.50;96.90;;;;;;5015603;28;20053;-76
2023/11/05 01:47:13;;;;;;;16.77;4.38;;;10.60;96.90;;;;;;5017944;28;20556;-76
2023/11/05 01:49:39;;;;;;;17.55;6.18;;;10.60;96.90;;;;;;5011147;28;20064;-76
2023/11/05 01:52:07;;;;;;;24.02;10.77;;;10.60;96.90;;;;;;5012955;28;20106;-75
2023/11/05 01:54:32;;;;;;;15.38;5.95;;;10.60;96.90;;;;;;5014690;28;20037;-77
2023/11/05 01:56:58;;;;;;;23.15;9.25;;;10.60;97.00;;;;;;5012862;28;20030;-75
2023/11/05 01:59:24;;;;;;;16.90;5.57;;;10.60;97.00;;;;;;5015225;28;20116;-76
2023/11/05 02:01:51;;;;;;;21.35;8.68;;;10.60;97.10;;;;;;5013167;28;20135;-76
2023/11/05 02:04:16;;;;;;;22.88;8.15;;;10.60;97.10;;;;;;5019210;28;20062;-79
2023/11/05 02:06:42;;;;;;;22.40;8.40;;;10.60;97.00;;;;;;5012583;28;20072;-77
2023/11/05 02:09:09;;;;;;;20.63;7.07;;;10.60;97.00;;;;;;5015832;28;20525;-76
2023/11/05 02:11:35;;;;;;;16.33;5.90;;;10.60;97.00;;;;;;5018638;28;20073;-76
2023/11/05 02:14:00;;;;;;;18.60;4.63;;;10.60;97.10;;;;;;5018402;28;20033;-77
2023/11/05 02:16:31;;;;;;;16.85;4.82;;;10.60;97.20;;;;;;5020122;28;20044;-76
2023/11/05 02:18:57;;;;;;;17.85;6.43;;;10.50;97.10;;;;;;5016050;28;20053;-76
2023/11/05 02:21:30;;;;;;;20.70;8.15;;;10.60;97.10;;;;;;5014163;28;20034;-78
2023/11/05 02:23:56;;;;;;;22.95;5.40;;;10.60;97.10;;;;;;5022269;28;20819;-75
2023/11/05 02:26:22;;;;;;;16.50;4.78;;;10.60;97.10;;;;;;5012813;28;20036;-78
2023/11/05 02:28:47;;;;;;;16.63;6.10;;;10.60;97.10;;;;;;4996193;28;20046;-79
2023/11/05 02:31:13;;;;;;;16.15;6.22;;;10.60;97.00;;;;;;4998196;28;20264;-76
2023/11/05 02:33:43;;;;;;;15.65;5.15;;;10.60;97.00;;;;;;4992977;28;20289;-76
2023/11/05 02:36:12;;;;;;;15.13;4.30;;;10.60;97.00;;;;;;4998198;28;20439;-78
2023/11/05 02:38:38;;;;;;;16.98;8.02;;;10.60;97.00;;;;;;4999851;28;20051;-76
2023/11/05 02:41:06;;;;;;;16.35;5.05;;;10.60;96.90;;;;;;4998394;28;20387;-77
2023/11/05 02:43:32;;;;;;;13.82;4.07;;;10.60;96.90;;;;;;4997736;28;20025;-78
2023/11/05 02:45:59;;;;;;;18.00;5.95;;;10.60;96.90;;;;;;5000118;28;20044;-77
2023/11/05 02:48:24;;;;;;;17.38;4.50;;;10.60;96.90;;;;;;4996184;28;21022;-75
2023/11/05 02:50:50;;;;;;;16.45;4.38;;;10.60;96.90;;;;;;4999763;28;20129;-77
2023/11/05 02:53:16;;;;;;;17.15;4.07;;;10.60;96.90;;;;;;4995849;28;20124;-76
2023/11/05 02:55:42;;;;;;;15.45;4.57;;;10.60;96.90;;;;;;5001047;28;20067;-75
2023/11/05 02:58:11;;;;;;;15.43;5.13;;;10.60;97.00;;;;;;5002490;28;20041;-75
2023/11/05 03:00:37;;;;;;;12.65;4.70;;;10.60;97.00;;;;;;4999838;28;20522;-77
2023/11/05 03:03:02;;;;;;;15.10;4.53;;;10.60;97.00;;;;;;4995104;28;20030;-76
2023/11/05 03:05:28;;;;;;;15.45;4.43;;;10.60;97.10;;;;;;4999577;28;20038;-76
2023/11/05 03:07:54;;;;;;;16.63;5.03;;;10.60;97.00;;;;;;4999424;28;20117;-74
2023/11/05 03:10:19;;;;;;;15.82;4.50;;;10.60;97.00;;;;;;4996644;28;20496;-77
2023/11/05 03:12:45;;;;;;;16.42;4.43;;;10.60;96.90;;;;;;4994564;28;20692;-75
2023/11/05 03:15:11;;;;;;;15.30;3.65;;;10.70;96.90;;;;;;4995080;28;20419;-77
2023/11/05 03:17:37;;;;;;;15.75;4.00;;;10.60;96.80;;;;;;5000870;28;20372;-76
2023/11/05 03:20:07;;;;;;;16.02;3.85;;;10.60;96.80;;;;;;4996365;28;20064;-76
2023/11/05 03:22:37;;;;;;;15.05;4.55;;;10.70;96.90;;;;;;4993777;28;20053;-76
2023/11/05 03:25:04;;;;;;;14.98;5.18;;;10.70;96.90;;;;;;5000076;28;20046;-77
2023/11/05 03:27:29;;;;;;;14.07;3.38;;;10.70;96.90;;;;;;5009385;28;20109;-76
2023/11/05 03:29:55;;;;;;;16.38;4.95;;;10.70;96.80;;;;;;5013394;28;20025;-76
2023/11/05 03:32:22;;;;;;;15.18;4.70;;;10.80;96.90;;;;;;5014575;28;20113;-76
2023/11/05 03:34:47;;;;;;;14.75;4.35;;;10.70;96.90;;;;;;5014928;28;20026;-77
2023/11/05 03:37:13;;;;;;;17.45;4.20;;;10.80;96.90;;;;;;5017582;28;20063;-75
2023/11/05 03:39:38;;;;;;;19.23;3.75;;;10.80;96.80;;;;;;5018922;28;20033;-75
2023/11/05 03:42:06;;;;;;;16.70;4.20;;;10.80;96.90;;;;;;5016239;28;20034;-75
2023/11/05 03:44:32;;;;;;;18.35;4.18;;;10.80;96.80;;;;;;5022592;28;20410;-76
2023/11/05 03:46:58;;;;;;;18.00;4.28;;;10.80;96.80;;;;;;5018974;28;20083;-76
2023/11/05 03:49:23;;;;;;;15.60;4.55;;;10.80;96.80;;;;;;5019626;28;20087;-76
2023/11/05 03:51:49;;;;;;;14.45;3.42;;;10.80;96.80;;;;;;5020215;28;20026;-76
2023/11/05 03:54:15;;;;;;;16.98;4.93;;;10.80;96.80;;;;;;5021207;28;20026;-78
2023/11/05 03:56:41;;;;;;;19.13;4.47;;;10.80;96.80;;;;;;5015192;28;20918;-77
2023/11/05 03:59:07;;;;;;;14.82;3.65;;;10.90;96.80;;;;;;5013023;28;20088;-77
2023/11/05 04:01:32;;;;;;;17.42;4.60;;;10.80;96.70;;;;;;5009589;28;20494;-76
2023/11/05 04:03:58;;;;;;;19.10;4.82;;;10.90;96.70;;;;;;5016480;28;20470;-79
2023/11/05 04:06:24;;;;;;;14.48;3.95;;;10.90;96.70;;;;;;5016078;28;20132;-77
2023/11/05 04:08:49;;;;;;;18.48;4.47;;;10.90;96.70;;;;;;5017701;28;20017;-76
2023/11/05 04:11:15;;;;;;;14.65;4.32;;;10.90;96.70;;;;;;5015598;28;20041;-77
2023/11/05 04:13:44;;;;;;;16.10;3.97;;;10.90;96.70;;;;;;5015949;28;20030;-78
2023/11/05 04:16:09;;;;;;;18.00;5.00;;;10.80;96.70;;;;;;5013460;28;20049;-77
2023/11/05 04:18:35;;;;;;;15.80;5.45;;;10.80;96.60;;;;;;5015610;28;20407;-75
2023/11/05 04:21:01;;;;;;;17.80;4.55;;;10.80;96.80;;;;;;5017677;28;20041;-75
2023/11/05 04:23:27;;;;;;;16.35;3.40;;;10.80;96.80;;;;;;5018181;28;20446;-77
2023/11/05 04:25:52;;;;;;;16.20;3.78;;;10.80;96.80;;;;;;5018388;28;20144;-77
2023/11/05 04:28:18;;;;;;;15.82;3.30;;;10.80;96.80;;;;;;5017540;28;20057;-76
2023/11/05 04:30:43;;;;;;;17.75;4.10;;;10.90;96.70;;;;;;5019255;28;20125;-74
2023/11/05 04:33:09;;;;;;;19.83;3.95;;;10.80;96.70;;;;;;5014913;28;20068;-76
2023/11/05 04:35:35;;;;;;;12.82;4.03;;;10.80;96.70;;;;;;5018167;28;20083;-77
2023/11/05 04:38:00;;;;;;;14.85;3.80;;;10.90;96.80;;;;;;5018210;28;20049;-77
2023/11/05 04:40:26;;;;;;;15.68;4.05;;;10.80;96.70;;;;;;5017731;28;20337;-75
2023/11/05 04:42:52;;;;;;;17.77;3.85;;;10.80;96.60;;;;;;5020154;28;20037;-78
2023/11/05 04:45:18;;;;;;;14.32;3.50;;;10.80;96.60;;;;;;5016467;28;20099;-75
2023/11/05 04:47:43;;;;;;;12.73;3.63;;;10.70;96.70;;;;;;5017096;28;20046;-76
2023/11/05 04:50:09;;;;;;;16.67;3.67;;;10.70;96.80;;;;;;5016889;28;20029;-75
2023/11/05 04:52:35;;;;;;;14.02;4.07;;;10.70;96.80;;;;;;5015529;28;20025;-75
2023/11/05 04:55:01;;;;;;;19.60;5.10;;;10.70;96.70;;;;;;5015504;28;20037;-76
2023/11/05 04:57:27;;;;;;;18.42;5.60;;;10.70;96.80;;;;;;5014708;28;20052;-75
2023/11/05 04:59:52;;;;;;;17.08;4.88;;;10.70;96.90;;;;;;5018146;28;20073;-76
2023/11/05 05:02:18;;;;;;;20.17;4.72;;;10.70;96.90;;;;;;5016069;28;20039;-76
2023/11/05 05:04:44;;;;;;;19.58;3.90;;;10.70;96.90;;;;;;5010904;28;20604;-76
2023/11/05 05:07:09;;;;;;;18.58;4.65;;;10.70;96.80;;;;;;5016365;28;20026;-76
2023/11/05 05:09:37;;;;;;;15.82;3.58;;;10.60;96.80;;;;;;5014644;28;20346;-76
2023/11/05 05:12:04;;;;;;;19.00;4.40;;;10.60;96.90;;;;;;5010676;28;20049;-77
2023/11/05 05:14:30;;;;;;;16.80;3.60;;;10.60;96.90;;;;;;5013159;28;20029;-76
2023/11/05 05:16:55;;;;;;;15.63;4.18;;;10.60;97.00;;;;;;5012753;28;20048;-76
2023/11/05 05:19:21;;;;;;;10.65;3.60;;;10.70;97.10;;;;;;5008409;28;20461;-75
2023/11/05 05:21:47;;;;;;;13.80;3.38;;;10.70;97.00;;;;;;5011004;28;20463;-77
2023/11/05 05:24:13;;;;;;;16.92;4.22;;;10.70;97.00;;;;;;5027729;28;20109;-77
2023/11/05 05:26:38;;;;;;;17.63;4.10;;;10.70;97.00;;;;;;5013003;28;20033;-75
2023/11/05 05:29:04;;;;;;;13.57;3.35;;;10.70;96.90;;;;;;5007742;28;20074;-76
2023/11/05 05:31:31;;;;;;;16.17;3.15;;;10.70;96.90;;;;;;5009695;28;20371;-76
2023/11/05 05:33:56;;;;;;;14.15;2.80;;;10.70;96.80;;;;;;5011559;28;20026;-78
2023/11/05 05:36:22;;;;;;;13.00;2.90;;;10.70;96.50;;;;;;5013058;28;20382;-75
2023/11/05 05:38:48;;;;;;;9.95;2.80;;;10.70;96.50;;;;;;5012536;28;20034;-74
2023/11/05 05:41:14;;;;;;;16.08;3.05;;;10.70;96.40;;;;;;5013469;28;20489;-76
2023/11/05 05:43:40;;;;;;;13.43;3.17;;;10.70;96.40;;;;;;5015706;28;20041;-75
2023/11/05 05:46:06;;;;;;;13.18;3.45;;;10.70;96.30;;;;;;5014550;28;20041;-74
2023/11/05 05:48:32;;;;;;;13.52;3.05;;;10.70;96.30;;;;;;5016796;28;20045;-75
2023/11/05 05:50:58;;;;;;;13.52;3.47;;;10.60;96.30;;;;;;5014871;28;20053;-75
2023/11/05 05:53:23;;;;;;;11.45;2.95;;;10.60;96.40;;;;;;5006183;28;20037;-76
2023/11/05 05:55:50;;;;;;;12.27;3.67;;;10.60;96.40;;;;;;5014629;28;20495;-74
2023/11/05 05:58:16;;;;;;;9.88;3.53;;;10.60;96.40;;;;;;5013920;28;20057;-79
2023/11/05 06:00:45;;;;;;;10.40;2.80;;;10.60;96.50;;;;;;5019067;28;20029;-75
2023/11/05 06:03:11;;;;;;;16.30;3.40;;;10.60;96.40;;;;;;5015145;28;20073;-75
2023/11/05 06:05:37;;;;;;;12.55;3.45;;;10.60;96.40;;;;;;5016741;28;20068;-75
2023/11/05 06:08:04;;;;;;;16.05;3.85;;;10.60;96.40;;;;;;5016925;28;20053;-76
2023/11/05 06:10:29;;;;;;;10.35;4.10;;;10.60;96.40;;;;;;5014621;28;20045;-75
2023/11/05 06:12:55;;;;;;;11.50;3.45;;;10.60;96.40;;;;;;5017399;28;20034;-74
2023/11/05 06:15:20;;;;;;;13.65;3.90;;;10.60;96.40;;;;;;5027365;28;20598;-76
2023/11/05 06:17:46;;;;;;;9.80;3.88;;;10.60;96.40;;;;;;5022951;28;20033;-75
2023/11/05 06:20:12;;;;;;;12.32;4.25;;;10.60;96.30;;;;;;5022499;28;20533;-76
2023/11/05 06:22:38;;;;;;;11.75;3.70;;;10.60;96.30;;;;;;5010135;28;20502;-76
2023/11/05 06:25:04;;;;;;;16.45;4.40;;;10.60;96.40;;;;;;5006257;28;20058;-77
2023/11/05 06:27:29;;;;;;;14.35;4.03;;;10.60;96.40;;;;;;5014024;28;20090;-76
2023/11/05 06:29:56;;;;;;;11.30;3.53;;;10.60;96.50;;;;;;5013163;28;20033;-77
2023/11/05 06:32:22;;;;;;;11.10;3.70;;;10.60;96.50;;;;;;5014564;28;20072;-77
2023/11/05 06:34:48;;;;;;;14.00;3.85;;;10.60;96.60;;;;;;5010519;28;20033;-76
2023/11/05 06:37:14;;;;;;;15.02;3.90;;;10.60;96.70;;;;;;5014658;28;20369;-76
2023/11/05 06:39:40;;;;;;;11.45;3.00;;;10.60;96.70;;;;;;5013567;28;20059;-76
2023/11/05 06:42:06;;;;;;;15.52;3.85;;;10.50;96.70;;;;;;5015384;28;20053;-75
2023/11/05 06:44:32;;;;;;;15.38;4.03;;;10.50;96.80;;;;;;5032441;28;20056;-76
2023/11/05 06:46:58;;;;;;;16.55;3.95;;;10.50;97.00;;;;;;5015927;28;20136;-76
2023/11/05 06:49:23;;;;;;;12.80;3.72;;;10.60;97.10;;;;;;5032072;28;20049;-75
2023/11/05 06:51:49;;;;;;;17.15;3.95;;;10.60;97.10;;;;;;5015204;28;20475;-72
2023/11/05 06:54:14;;;;;;;15.18;3.65;;;10.60;97.20;;;;;;5019832;28;20426;-74
2023/11/05 06:56:40;;;;;;;13.68;3.40;;;10.60;97.20;;;;;;5016426;28;20365;-72
2023/11/05 06:59:07;;;;;;;15.25;3.72;;;10.60;97.20;;;;;;5019264;28;20425;-73
2023/11/05 07:01:33;;;;;;;12.40;3.28;;;10.70;97.20;;;;;;5017773;28;20041;-73
2023/11/05 07:03:59;;;;;;;9.63;2.58;;;10.70;97.30;;;;;;5020692;28;20018;-72
2023/11/05 07:06:26;;;;;;;16.27;3.50;;;10.70;97.20;;;;;;5019188;28;20041;-73
2023/11/05 07:08:52;;;;;;;9.55;2.58;;;10.70;97.20;;;;;;5019999;28;20105;-73
2023/11/05 07:11:18;;;;;;;9.93;3.03;;;10.70;97.10;;;;;;5016634;28;20077;-74
2023/11/05 07:13:44;;;;;;;13.57;3.10;;;10.70;97.00;;;;;;5018076;28;20145;-72
2023/11/05 07:16:09;;;;;;;12.95;3.33;;;10.70;97.00;;;;;;5019131;28;20394;-73
2023/11/05 07:18:35;;;;;;;10.45;3.00;;;10.70;96.90;;;;;;5017076;28;20135;-73
2023/11/05 07:21:01;;;;;;;9.32;2.67;;;10.70;96.90;;;;;;5017113;28;20064;-72
2023/11/05 07:23:27;;;;;;;10.38;3.00;;;10.70;96.80;;;;;;5016749;28;20033;-74
2023/11/05 07:25:52;;;;;;;9.75;2.92;;;10.80;96.90;;;;;;5020999;28;20041;-73
2023/11/05 07:28:18;;;;;;;9.88;2.97;;;10.80;96.90;;;;;;5019002;28;20049;-72
2023/11/05 07:30:43;;;;;;;9.65;3.00;;;10.70;96.80;;;;;;5014257;28;20041;-72
2023/11/05 07:33:12;;;;;;;8.43;3.33;;;10.70;96.80;;;;;;5018019;28;20046;-74
2023/11/05 07:35:37;;;;;;;9.18;3.70;;;10.70;96.90;;;;;;5016340;28;20112;-75
2023/11/05 07:38:03;;;;;;;12.38;4.10;;;10.70;97.10;;;;;;5014860;28;20467;-74
2023/11/05 07:40:28;;;;;;;7.95;3.60;;;10.60;97.30;;;;;;5013213;28;20037;-74
2023/11/05 07:42:55;;;;;;;10.85;3.47;;;10.70;97.40;;;;;;5015481;28;20037;-73
2023/11/05 07:45:20;;;;;;;8.60;3.88;;;10.70;97.40;;;;;;5017111;28;20050;-74
2023/11/05 07:47:46;;;;;;;9.20;4.40;;;10.60;97.40;;;;;;5017192;28;20034;-74
2023/11/05 07:50:12;;;;;;;9.60;3.35;;;10.70;97.60;;;;;;5014943;28;20492;-74
2023/11/05 07:52:43;;;;;;;9.60;3.30;;;10.70;97.70;;;;;;5009432;28;20042;-74
2023/11/05 07:55:09;;;;;;;8.68;3.97;;;10.70;97.80;;;;;;5015266;28;20539;-73
2023/11/05 07:57:35;;;;;;;11.57;4.10;;;10.70;97.80;;;;;;5014448;28;20402;-74
2023/11/05 08:00:01;;;;;;;24.30;5.35;;;10.70;97.80;;;;;;5019778;28;20053;-74
2023/11/05 08:02:28;;;;;;;12.25;5.13;;;10.70;97.90;;;;;;5015014;28;20565;-74
2023/11/05 08:04:56;;;;;;;13.98;4.97;;;10.70;97.90;;;;;;5014991;28;20108;-74
2023/11/05 08:07:21;;;;;;;12.70;5.03;;;10.80;97.80;;;;;;5015245;28;20037;-74
2023/11/05 08:09:47;;;;;;;11.75;4.53;;;10.80;97.70;;;;;;5017168;28;20044;-74
2023/11/05 08:12:13;;;;;;;13.35;4.95;;;10.80;97.80;;;;;;5013832;28;20049;-74
2023/11/05 08:14:38;;;;;;;10.50;4.78;;;10.80;97.70;;;;;;5017910;28;20044;-73
2023/11/05 08:17:04;;;;;;;12.75;5.50;;;10.80;97.70;;;;;;5012806;28;20084;-74
2023/11/05 08:19:29;;;;;;;13.35;5.55;;;10.90;97.70;;;;;;5016960;28;20493;-72
2023/11/05 08:21:55;;;;;;;12.68;5.50;;;10.90;97.70;;;;;;5009277;28;20415;-75
2023/11/05 08:24:23;;;;;;;12.35;4.90;;;11.00;97.70;;;;;;5014849;28;20034;-75
2023/11/05 08:26:48;;;;;;;13.30;5.35;;;11.00;97.50;;;;;;5015915;28;20046;-74
2023/11/05 08:29:14;;;;;;;11.02;5.55;;;10.90;97.50;;;;;;5008603;28;20033;-72
2023/11/05 08:31:42;;;;;;;10.73;5.35;;;11.00;97.50;;;;;;5010649;28;20037;-72
2023/11/05 08:34:07;;;;;;;14.88;5.78;;;11.00;97.50;;;;;;5012243;28;20075;-74
2023/11/05 08:36:34;;;;;;;11.95;5.47;;;11.00;97.50;;;;;;5010676;28;20033;-73
2023/11/05 08:39:02;;;;;;;13.95;6.18;;;11.00;97.50;;;;;;5011142;28;20025;-74
2023/11/05 08:41:27;;;;;;;14.50;6.75;;;11.10;97.50;;;;;;5012311;28;20033;-73
2023/11/05 08:43:53;;;;;;;15.90;7.10;;;11.10;97.30;;;;;;5009366;28;20021;-73
2023/11/05 08:46:18;;;;;;;20.10;7.22;;;11.10;97.20;;;;;;5011543;28;20033;-73
2023/11/05 08:48:44;;;;;;;16.08;8.05;;;11.20;97.20;;;;;;5013531;28;20083;-73
2023/11/05 08:51:09;;;;;;;15.18;8.55;;;11.20;97.10;;;;;;5012191;28;20763;-74
2023/11/05 08:53:35;;;;;;;19.15;9.43;;;11.30;97.00;;;;;;5016880;28;20375;-75
2023/11/05 08:56:01;;;;;;;18.50;8.95;;;11.30;96.90;;;;;;5006249;28;20041;-76
2023/11/05 08:58:27;;;;;;;21.17;9.93;;;11.40;97.00;;;;;;5017551;28;20100;-74
2023/11/05 09:00:56;;;;;;;20.05;10.57;;;11.40;96.80;;;;;;5012912;28;20436;-74
2023/11/05 09:03:25;;;;;;;21.73;11.95;;;11.50;96.90;;;;;;5014369;28;20042;-75
2023/11/05 09:05:51;;;;;;;21.45;11.30;;;11.50;96.40;;;;;;5016611;28;20063;-74
2023/11/05 09:08:16;;;;;;;22.15;11.68;;;11.60;96.40;;;;;;5014585;28;20033;-74
2023/11/05 09:10:42;;;;;;;25.30;13.18;;;11.60;96.30;;;;;;5017547;28;20453;-75
2023/11/05 09:13:08;;;;;;;25.70;13.40;;;11.80;96.00;;;;;;5013623;28;20041;-76
2023/11/05 09:15:35;;;;;;;28.05;14.70;;;11.90;95.60;;;;;;5017691;28;20045;-73
2023/11/05 09:18:00;;;;;;;26.88;13.10;;;11.80;95.40;;;;;;5016419;28;20041;-74
2023/11/05 09:20:26;;;;;;;27.98;14.60;;;11.90;95.20;;;;;;5016815;28;20045;-73
2023/11/05 09:22:52;;;;;;;26.48;15.02;;;11.70;95.20;;;;;;5013547;28;20061;-74
2023/11/05 09:25:18;;;;;;;29.55;15.65;;;11.80;95.30;;;;;;5019959;28;20025;-75
2023/11/05 09:27:44;;;;;;;27.83;15.82;;;11.90;95.30;;;;;;5007991;28;20156;-77
2023/11/05 09:30:14;;;;;;;28.73;15.93;;;11.90;95.20;;;;;;5011731;28;20038;-73
2023/11/05 09:32:44;;;;;;;26.27;15.77;;;11.90;95.10;;;;;;5015369;28;20030;-73
2023/11/05 09:35:13;;;;;;;26.85;15.35;;;11.80;94.80;;;;;;5018275;28;20041;-74
2023/11/05 09:37:41;;;;;;;29.80;14.82;;;11.80;94.80;;;;;;5014058;28;20037;-74
2023/11/05 09:40:07;;;;;;;29.88;16.63;;;11.80;94.60;;;;;;5012670;28;20038;-73
2023/11/05 09:42:37;;;;;;;28.15;16.42;;;11.80;94.70;;;;;;5012320;28;20300;-73
2023/11/05 09:45:06;;;;;;;29.23;16.10;;;11.70;94.70;;;;;;5012652;28;20041;-74
2023/11/05 09:47:33;;;;;;;30.13;16.83;;;11.80;94.70;;;;;;5016772;28;20053;-74
2023/11/05 09:49:58;;;;;;;28.60;16.02;;;11.80;94.30;;;;;;5017262;28;20041;-74
2023/11/05 09:52:27;;;;;;;27.88;15.45;;;11.80;94.30;;;;;;5019170;28;20036;-73
2023/11/05 09:54:53;;;;;;;32.33;16.17;;;11.70;94.20;;;;;;5015034;28;20558;-73
2023/11/05 09:57:19;;;;;;;27.85;15.52;;;11.70;94.30;;;;;;5013927;28;20316;-73
2023/11/05 09:59:45;;;;;;;26.45;15.85;;;11.70;94.10;;;;;;5013153;28;20449;-74
2023/11/05 10:02:12;;;;;;;22.30;14.23;;;11.60;94.10;;;;;;5013991;28;20049;-74
2023/11/05 10:04:38;;;;;;;25.08;15.13;;;11.50;94.10;;;;;;5014480;28;20474;-74
2023/11/05 10:07:03;;;;;;;24.20;13.65;;;11.50;94.20;;;;;;5009050;28;20038;-73
2023/11/05 10:09:30;;;;;;;22.00;12.82;;;11.60;94.30;;;;;;5013796;28;20497;-74
2023/11/05 10:11:55;;;;;;;20.50;12.15;;;11.70;93.70;;;;;;5011623;28;20033;-74
2023/11/05 10:14:22;;;;;;;22.20;11.82;;;11.70;93.50;;;;;;5015223;28;20032;-74
2023/11/05 10:16:48;;;;;;;18.92;10.85;;;11.70;93.00;;;;;;5016182;28;20037;-75
2023/11/05 10:19:14;;;;;;;16.80;9.95;;;11.70;92.90;;;;;;5015189;28;20052;-74
2023/11/05 10:21:39;;;;;;;20.17;10.23;;;11.70;92.90;;;;;;5016589;28;20025;-73
2023/11/05 10:24:07;;;;;;;16.60;8.68;;;11.70;92.80;;;;;;5018343;28;20025;-74
2023/11/05 10:26:33;;;;;;;12.55;7.97;;;11.70;92.40;;;;;;5019470;28;20045;-74
2023/11/05 10:29:00;;;;;;;12.40;7.95;;;11.80;92.00;;;;;;5017351;28;20017;-74
2023/11/05 10:31:28;;;;;;;14.75;7.10;;;11.80;91.50;;;;;;5017757;28;20033;-73
2023/11/05 10:33:55;;;;;;;13.20;7.30;;;11.70;91.30;;;;;;5017357;28;20021;-75
2023/11/05 10:36:21;;;;;;;13.30;7.65;;;11.80;91.30;;;;;;5017157;28;20029;-73
2023/11/05 10:38:51;;;;;;;11.82;6.88;;;11.90;91.00;;;;;;5021083;28;20893;-73
2023/11/05 10:41:17;;;;;;;11.98;6.68;;;11.80;91.00;;;;;;5014650;28;20048;-73
2023/11/05 10:43:47;;;;;;;11.02;6.55;;;11.60;91.10;;;;;;5023164;28;20936;-73
2023/11/05 10:46:17;;;;;;;10.88;6.75;;;11.60;91.50;;;;;;5015737;28;20131;-73
2023/11/05 10:48:44;;;;;;;10.45;6.47;;;11.50;91.70;;;;;;5023520;28;20038;-74
2023/11/05 10:51:11;;;;;;;9.88;6.38;;;11.60;91.60;;;;;;5018190;28;20041;-73
2023/11/05 10:53:37;;;;;;;11.55;6.47;;;11.50;91.50;;;;;;5017908;28;20477;-73
2023/11/05 10:56:30;;;;;;;13.25;6.72;;;11.60;91.60;;;;;;5021286;28;20037;-73
2023/11/05 10:58:56;;;;;;;10.27;6.30;;;11.60;91.10;;;;;;5023967;28;20041;-73
2023/11/05 11:01:22;;;;;;;11.73;6.60;;;11.60;91.10;;;;;;5022337;28;20037;-74
2023/11/05 11:03:48;;;;;;;10.80;6.10;;;11.70;91.50;;;;;;5030389;28;20101;-74
2023/11/05 11:06:15;;;;;;;10.45;5.93;;;11.80;91.00;;;;;;5018209;28;20562;-73
2023/11/05 11:08:56;;;;;;;12.07;6.60;;;11.80;90.90;;;;;;5020628;28;20482;-73
2023/11/05 11:11:23;;;;;;;11.77;6.35;;;11.70;90.60;;;;;;5015227;28;20482;-74
2023/11/05 11:13:55;;;;;;;10.85;5.88;;;11.70;90.80;;;;;;5018526;28;20643;-72
2023/11/05 11:16:25;;;;;;;11.02;6.10;;;11.60;90.90;;;;;;5015855;28;20046;-74
2023/11/05 11:18:53;;;;;;;10.70;5.90;;;11.60;90.90;;;;;;5022291;28;20029;-72
2023/11/05 11:21:19;;;;;;;11.60;5.95;;;11.60;91.10;;;;;;5018027;28;20537;-74
2023/11/05 11:23:45;;;;;;;12.02;5.88;;;11.60;90.90;;;;;;5017659;28;20021;-73
2023/11/05 11:26:22;;;;;;;13.57;6.43;;;11.60;90.90;;;;;;5022091;28;20041;-74
2023/11/05 11:29:00;;;;;;;10.43;6.07;;;11.60;91.00;;;;;;5020204;28;20061;-74
2023/11/05 11:31:27;;;;;;;11.70;6.30;;;11.60;90.90;;;;;;5020606;28;20566;-73
2023/11/05 11:33:53;;;;;;;13.05;6.53;;;11.60;90.90;;;;;;5020400;28;20025;-73
2023/11/05 11:36:19;;;;;;;11.00;6.13;;;11.50;91.10;;;;;;5018692;28;20443;-74
2023/11/05 11:38:45;;;;;;;15.30;6.43;;;11.40;91.40;;;;;;5024109;28;20025;-74
2023/11/05 11:41:12;;;;;;;12.50;7.70;;;11.40;92.00;;;;;;5020137;28;20038;-73
2023/11/05 11:43:38;;;;;;;13.45;6.68;;;11.30;92.50;;;;;;5019902;28;20056;-73
2023/11/05 11:46:04;;;;;;;14.43;7.32;;;11.40;92.90;;;;;;5017915;28;20623;-74
2023/11/05 11:48:29;;;;;;;10.48;6.57;;;11.30;93.20;;;;;;5015955;28;20041;-74
2023/11/05 11:51:02;;;;;;;14.80;7.70;;;11.30;93.30;;;;;;5018357;28;20030;-74
2023/11/05 11:53:33;;;;;;;18.65;7.85;;;11.30;93.40;;;;;;5015049;28;20068;-73
2023/11/05 11:55:59;;;;;;;12.80;8.13;;;11.40;93.50;;;;;;5018237;28;20033;-74
2023/11/05 11:58:27;;;;;;;13.73;7.95;;;11.40;93.10;;;;;;5016842;28;20513;-74
2023/11/05 12:00:53;;;;;;;13.35;7.03;;;11.50;93.10;;;;;;5017090;28;20079;-73
2023/11/05 12:03:19;;;;;;;14.50;7.63;;;11.50;93.00;;;;;;5018248;28;20033;-74
2023/11/05 12:05:45;;;;;;;13.10;7.05;;;11.60;92.80;;;;;;5015436;28;20045;-74
2023/11/05 12:08:13;;;;;;;12.60;6.35;;;11.60;92.70;;;;;;5017590;28;21735;-72
2023/11/05 12:10:42;;;;;;;16.27;7.03;;;11.80;92.30;;;;;;5018122;28;20042;-71
2023/11/05 12:13:08;;;;;;;12.27;6.75;;;11.90;91.70;;;;;;5015038;28;20419;-73
2023/11/05 12:15:38;;;;;;;11.15;6.60;;;12.10;91.30;;;;;;5015658;28;20105;-75
2023/11/05 12:18:04;;;;;;;10.25;6.10;;;12.10;90.80;;;;;;5012332;28;20033;-73
2023/11/05 12:20:30;;;;;;;11.63;6.32;;;12.10;90.70;;;;;;5029038;28;20058;-72
2023/11/05 12:22:56;;;;;;;10.75;5.78;;;12.30;90.40;;;;;;5012240;28;20052;-74
2023/11/05 12:25:22;;;;;;;13.07;6.20;;;12.30;90.20;;;;;;5011735;28;20087;-73
2023/11/05 12:27:49;;;;;;;13.20;5.57;;;12.30;89.60;;;;;;5009906;28;20057;-74
2023/11/05 12:30:19;;;;;;;13.57;6.43;;;12.40;89.30;;;;;;5010481;28;20076;-72